Time;durP1;ratioP1;P1;durP2;ratioP2;P2;SDS_P1;SDS_P2;PMS_P1;PMS_P2;Temp;Humidity;BMP_temperature;BMP_pressure;BME280_temperature;BME280_humidity;BME280_pressure;Samples;Min_cycle;Max_cycle;Signal;HPM_P1;HPM_P2
2022/10/11 00:00:03;;;;;;;24.27;15.75;;;;;;;;;;4317672;33;20296;-88
2022/10/11 00:02:30;;;;;;;18.92;13.60;;;;;;;;;;4317478;33;20629;-88
2022/10/11 00:04:58;;;;;;;21.50;14.98;;;;;;;;;;4316968;33;20515;-88
2022/10/11 00:07:25;;;;;;;24.60;17.00;;;;;;;;;;4317447;33;20212;-88
2022/10/11 00:09:52;;;;;;;22.52;13.27;;;;;;;;;;4317648;33;20207;-88
2022/10/11 00:12:19;;;;;;;16.33;13.43;;;;;;;;;;4317478;33;20204;-87
2022/10/11 00:14:45;;;;;;;17.52;12.73;;;;;;;;;;4317332;33;20227;-88
2022/10/11 00:17:13;;;;;;;19.23;12.63;;;;;;;;;;4317437;33;20629;-88
2022/10/11 00:19:39;;;;;;;18.83;13.82;;;;;;;;;;4317257;33;20207;-89
2022/10/11 00:22:08;;;;;;;25.00;15.50;;;;;;;;;;4317245;33;20680;-88
2022/10/11 00:24:34;;;;;;;22.05;15.10;;;;;;;;;;4318416;33;20207;-88
2022/10/11 00:27:01;;;;;;;21.83;14.38;;;;;;;;;;4320003;33;20582;-88
2022/10/11 00:29:28;;;;;;;18.75;13.68;;;;;;;;;;4319975;33;20303;-88
2022/10/11 00:31:55;;;;;;;17.37;14.55;;;;;;;;;;4319831;33;20245;-88
2022/10/11 00:34:22;;;;;;;23.15;14.68;;;;;;;;;;4319863;33;20216;-88
2022/10/11 00:36:48;;;;;;;18.87;15.55;;;;;;;;;;4319806;33;20219;-88
2022/10/11 00:39:17;;;;;;;18.42;14.95;;;;;;;;;;4319662;33;20207;-88
2022/10/11 00:41:43;;;;;;;24.15;15.77;;;;;;;;;;4319712;33;20270;-88
2022/10/11 00:44:16;;;;;;;21.02;15.70;;;;;;;;;;4319748;33;20283;-88
2022/10/11 00:46:46;;;;;;;22.17;14.75;;;;;;;;;;4319165;33;20241;-89
2022/10/11 00:49:19;;;;;;;28.23;17.15;;;;;;;;;;4319884;33;20208;-88
2022/10/11 00:51:53;;;;;;;20.58;14.70;;;;;;;;;;4319283;33;20227;-88
2022/10/11 00:54:25;;;;;;;20.95;14.90;;;;;;;;;;4319781;33;20284;-88
2022/10/11 00:56:57;;;;;;;17.60;13.48;;;;;;;;;;4319096;33;20219;-88
2022/10/11 00:59:31;;;;;;;24.58;13.65;;;;;;;;;;4319769;33;20192;-89
2022/10/11 01:01:58;;;;;;;17.33;13.68;;;;;;;;;;4319337;33;20314;-89
2022/10/11 01:04:25;;;;;;;20.50;13.88;;;;;;;;;;4319515;33;20225;-88
2022/10/11 01:06:53;;;;;;;21.73;12.73;;;;;;;;;;4318881;33;20223;-88
2022/10/11 01:09:22;;;;;;;26.30;12.60;;;;;;;;;;4319436;33;20215;-88
2022/10/11 01:11:51;;;;;;;17.15;12.32;;;;;;;;;;4318858;33;20215;-88
2022/10/11 01:14:48;;;;;;;27.37;11.90;;;;;;;;;;4319551;33;20341;-88
2022/10/11 01:17:23;;;;;;;21.42;12.88;;;;;;;;;;4318898;33;20645;-88
2022/10/11 01:20:23;;;;;;;22.25;13.02;;;;;;;;;;4319149;33;20290;-88
2022/10/11 01:23:22;;;;;;;22.02;12.25;;;;;;;;;;4315935;33;20239;-87
2022/10/11 01:26:09;;;;;;;17.55;13.43;;;;;;;;;;4316145;33;20285;-88
2022/10/11 01:28:43;;;;;;;20.75;12.95;;;;;;;;;;4319269;33;20203;-87
2022/10/11 01:31:19;;;;;;;24.97;14.90;;;;;;;;;;4318791;33;20230;-88
2022/10/11 01:33:51;;;;;;;19.00;15.60;;;;;;;;;;4319241;33;20211;-87
2022/10/11 01:36:27;;;;;;;21.50;14.20;;;;;;;;;;4317987;33;20294;-87
2022/10/11 01:38:59;;;;;;;19.98;15.25;;;;;;;;;;4319237;33;20225;-87
2022/10/11 01:41:30;;;;;;;21.20;15.63;;;;;;;;;;4319442;33;20653;-86
2022/10/11 01:44:00;;;;;;;21.13;16.07;;;;;;;;;;4319130;33;20208;-87
2022/10/11 01:46:29;;;;;;;21.12;14.82;;;;;;;;;;4318954;33;20223;-86
2022/10/11 01:48:58;;;;;;;26.17;13.10;;;;;;;;;;4318801;33;20211;-87
2022/10/11 01:51:29;;;;;;;22.10;13.55;;;;;;;;;;4318540;33;20227;-87
2022/10/11 01:54:11;;;;;;;26.58;13.27;;;;;;;;;;4319164;33;20222;-88
2022/10/11 01:56:58;;;;;;;29.63;13.35;;;;;;;;;;4318721;33;20283;-87
2022/10/11 01:59:42;;;;;;;18.70;13.18;;;;;;;;;;4318751;33;20207;-86
2022/10/11 02:02:23;;;;;;;23.67;13.73;;;;;;;;;;4318858;33;20207;-87
2022/10/11 02:04:55;;;;;;;23.52;13.60;;;;;;;;;;4318595;33;20215;-88
2022/10/11 02:07:28;;;;;;;17.67;13.93;;;;;;;;;;4318692;33;20212;-88
2022/10/11 02:10:03;;;;;;;27.75;14.43;;;;;;;;;;4318790;33;20259;-88
2022/10/11 02:12:34;;;;;;;21.27;13.87;;;;;;;;;;4318871;33;20616;-88
2022/10/11 02:15:07;;;;;;;18.70;14.10;;;;;;;;;;4318344;33;20236;-87
2022/10/11 02:17:39;;;;;;;18.77;13.90;;;;;;;;;;4318720;33;20204;-87
2022/10/11 02:20:11;;;;;;;20.65;13.07;;;;;;;;;;4318107;33;20274;-88
2022/10/11 02:22:40;;;;;;;18.73;12.90;;;;;;;;;;4318537;33;20302;-88
2022/10/11 02:25:11;;;;;;;19.90;13.07;;;;;;;;;;4318031;33;20649;-88
2022/10/11 02:27:40;;;;;;;16.48;12.73;;;;;;;;;;4318249;33;20672;-88
2022/10/11 02:30:10;;;;;;;18.12;12.32;;;;;;;;;;4318127;33;20256;-88
2022/10/11 02:32:40;;;;;;;19.83;13.38;;;;;;;;;;4318557;33;20211;-88
2022/10/11 02:35:09;;;;;;;22.13;14.15;;;;;;;;;;4318176;33;20253;-87
2022/10/11 02:37:41;;;;;;;20.83;11.88;;;;;;;;;;4318466;33;20298;-88
2022/10/11 02:40:14;;;;;;;20.98;12.65;;;;;;;;;;4318529;33;20235;-88
2022/10/11 02:42:45;;;;;;;19.67;12.55;;;;;;;;;;4319376;33;20233;-86
2022/10/11 02:45:17;;;;;;;23.50;12.82;;;;;;;;;;4326928;33;20246;-86
2022/10/11 02:47:45;;;;;;;24.53;12.77;;;;;;;;;;4326123;33;20250;-86
2022/10/11 02:50:13;;;;;;;20.23;12.73;;;;;;;;;;4326552;33;20604;-85
2022/10/11 02:52:40;;;;;;;17.10;12.68;;;;;;;;;;4327301;33;20215;-85
2022/10/11 02:55:08;;;;;;;20.87;12.37;;;;;;;;;;4319193;33;20249;-88
2022/10/11 02:57:35;;;;;;;26.43;13.10;;;;;;;;;;4318773;33;20238;-89
2022/10/11 03:00:02;;;;;;;19.62;12.75;;;;;;;;;;4318710;33;20600;-88
2022/10/11 03:02:29;;;;;;;21.80;12.00;;;;;;;;;;4318671;33;20753;-89
2022/10/11 03:04:57;;;;;;;19.73;12.70;;;;;;;;;;4318023;33;20250;-88
2022/10/11 03:07:24;;;;;;;22.20;14.30;;;;;;;;;;4318247;33;20211;-88
2022/10/11 03:09:51;;;;;;;23.20;13.73;;;;;;;;;;4317919;33;20223;-87
2022/10/11 03:12:17;;;;;;;25.55;13.70;;;;;;;;;;4318005;33;20216;-88
2022/10/11 03:14:45;;;;;;;20.52;13.80;;;;;;;;;;4317509;33;20605;-88
2022/10/11 03:17:11;;;;;;;26.48;13.38;;;;;;;;;;4317935;33;20219;-88
2022/10/11 03:19:38;;;;;;;22.20;14.15;;;;;;;;;;4318280;33;20282;-88
2022/10/11 03:22:07;;;;;;;18.83;14.07;;;;;;;;;;4317362;33;20287;-88
2022/10/11 03:24:33;;;;;;;23.52;13.98;;;;;;;;;;4318106;33;20207;-87
2022/10/11 03:27:00;;;;;;;30.83;13.80;;;;;;;;;;4317302;33;20227;-87
2022/10/11 03:29:27;;;;;;;16.33;12.77;;;;;;;;;;4318121;33;20269;-87
2022/10/11 03:31:54;;;;;;;18.73;13.07;;;;;;;;;;4317163;33;20243;-88
2022/10/11 03:34:20;;;;;;;22.62;14.13;;;;;;;;;;4318037;33;20270;-88
2022/10/11 03:36:47;;;;;;;24.87;13.32;;;;;;;;;;4317286;33;20310;-89
2022/10/11 03:39:15;;;;;;;20.13;13.03;;;;;;;;;;4318050;33;20662;-89
2022/10/11 03:41:42;;;;;;;23.83;13.07;;;;;;;;;;4317243;33;20236;-89
2022/10/11 03:44:09;;;;;;;20.80;12.68;;;;;;;;;;4317561;33;20694;-87
2022/10/11 03:46:36;;;;;;;33.88;13.85;;;;;;;;;;4317645;33;20240;-88
2022/10/11 03:49:03;;;;;;;27.33;14.37;;;;;;;;;;4317787;33;20223;-87
2022/10/11 03:51:30;;;;;;;18.77;13.43;;;;;;;;;;4317313;33;20310;-87
2022/10/11 03:53:57;;;;;;;21.77;15.17;;;;;;;;;;4317620;33;20223;-89
2022/10/11 03:56:25;;;;;;;20.87;14.43;;;;;;;;;;4317652;33;20231;-89
2022/10/11 03:58:52;;;;;;;31.98;15.63;;;;;;;;;;4317881;33;20219;-88
2022/10/11 04:01:19;;;;;;;36.30;16.50;;;;;;;;;;4320279;33;20336;-88
2022/10/11 04:03:46;;;;;;;28.43;14.87;;;;;;;;;;4320447;33;20227;-88
2022/10/11 04:06:12;;;;;;;28.10;16.10;;;;;;;;;;4319972;33;20243;-88
2022/10/11 04:08:39;;;;;;;25.03;14.97;;;;;;;;;;4319866;33;20294;-89
2022/10/11 04:11:06;;;;;;;27.83;16.50;;;;;;;;;;4319947;33;20298;-88
2022/10/11 04:13:34;;;;;;;23.17;16.03;;;;;;;;;;4320205;33;20282;-88
2022/10/11 04:16:01;;;;;;;27.77;15.90;;;;;;;;;;4320017;33;20232;-88
2022/10/11 04:18:28;;;;;;;21.23;15.33;;;;;;;;;;4320396;33;20241;-88
2022/10/11 04:20:54;;;;;;;25.07;16.00;;;;;;;;;;4319803;33;20231;-90
2022/10/11 04:23:21;;;;;;;26.90;17.80;;;;;;;;;;4320288;33;20245;-88
2022/10/11 04:25:48;;;;;;;29.42;18.00;;;;;;;;;;4319567;33;20654;-88
2022/10/11 04:28:15;;;;;;;21.67;16.90;;;;;;;;;;4320437;33;20237;-88
2022/10/11 04:30:43;;;;;;;30.65;17.10;;;;;;;;;;4319666;33;20235;-88
2022/10/11 04:33:10;;;;;;;29.37;18.90;;;;;;;;;;4320219;33;20295;-88
2022/10/11 04:35:37;;;;;;;22.87;17.58;;;;;;;;;;4319795;33;20277;-88
2022/10/11 04:38:04;;;;;;;25.83;18.37;;;;;;;;;;4320247;33;20231;-89
2022/10/11 04:40:31;;;;;;;31.55;17.45;;;;;;;;;;4320101;33;20290;-89
2022/10/11 04:42:58;;;;;;;23.43;16.13;;;;;;;;;;4320364;33;20257;-89
2022/10/11 04:45:25;;;;;;;30.17;18.60;;;;;;;;;;4319584;33;20307;-88
2022/10/11 04:47:53;;;;;;;32.37;15.77;;;;;;;;;;4319916;33;20223;-88
2022/10/11 04:50:20;;;;;;;25.50;18.03;;;;;;;;;;4319438;33;20332;-89
2022/10/11 04:52:47;;;;;;;38.60;20.63;;;;;;;;;;4319638;33;20223;-88
2022/10/11 04:55:14;;;;;;;34.80;20.75;;;;;;;;;;4319047;33;20265;-87
2022/10/11 04:57:41;;;;;;;42.27;22.97;;;;;;;;;;4319983;33;20232;-87
2022/10/11 05:00:09;;;;;;;32.20;22.27;;;;;;;;;;4319688;33;20646;-88
2022/10/11 05:02:36;;;;;;;32.00;20.87;;;;;;;;;;4319594;33;20219;-87
2022/10/11 05:05:05;;;;;;;55.37;22.87;;;;;;;;;;4319302;33;20683;-89
2022/10/11 05:07:35;;;;;;;52.13;25.00;;;;;;;;;;4322240;33;20245;-89
2022/10/11 05:10:01;;;;;;;52.70;32.03;;;;;;;;;;4322514;33;20298;-89
2022/10/11 05:12:28;;;;;;;53.77;29.83;;;;;;;;;;4320307;33;20234;-88
2022/10/11 05:14:56;;;;;;;47.72;28.55;;;;;;;;;;4324456;33;20231;-88
2022/10/11 05:17:23;;;;;;;52.00;31.30;;;;;;;;;;4320499;33;20219;-89
2022/10/11 05:19:50;;;;;;;44.17;30.07;;;;;;;;;;4319536;33;20279;-88
2022/10/11 05:22:18;;;;;;;53.30;27.75;;;;;;;;;;4318411;33;20561;-89
2022/10/11 05:24:47;;;;;;;51.03;30.00;;;;;;;;;;4318518;33;20224;-87
2022/10/11 05:27:14;;;;;;;43.13;29.47;;;;;;;;;;4318547;33;20254;-89
2022/10/11 05:29:41;;;;;;;51.87;31.40;;;;;;;;;;4318422;33;20667;-88
2022/10/11 05:32:07;;;;;;;38.87;28.50;;;;;;;;;;4318725;33;20740;-88
2022/10/11 05:34:34;;;;;;;54.33;27.60;;;;;;;;;;4319862;33;20723;-87
2022/10/11 05:37:01;;;;;;;46.83;25.90;;;;;;;;;;4320829;33;20247;-87
2022/10/11 05:39:30;;;;;;;45.75;25.42;;;;;;;;;;4320226;33;20247;-89
2022/10/11 05:41:56;;;;;;;44.83;24.63;;;;;;;;;;4319084;33;20232;-89
2022/10/11 05:44:23;;;;;;;37.57;24.97;;;;;;;;;;4318683;33;20521;-90
2022/10/11 05:46:50;;;;;;;40.67;28.37;;;;;;;;;;4318374;33;20343;-88
2022/10/11 05:49:17;;;;;;;47.23;25.30;;;;;;;;;;4320054;33;20220;-89
2022/10/11 05:51:44;;;;;;;45.57;27.37;;;;;;;;;;4318739;33;20298;-88
2022/10/11 05:54:10;;;;;;;64.03;28.30;;;;;;;;;;4318888;33;20307;-89
2022/10/11 05:56:39;;;;;;;36.38;23.62;;;;;;;;;;4318032;33;20305;-89
2022/10/11 05:59:06;;;;;;;34.07;25.17;;;;;;;;;;4318728;33;20274;-88
2022/10/11 06:01:33;;;;;;;35.90;23.37;;;;;;;;;;4318103;33;20744;-89
2022/10/11 06:03:59;;;;;;;32.22;26.50;;;;;;;;;;4318251;33;20286;-88
2022/10/11 06:06:26;;;;;;;29.97;24.60;;;;;;;;;;4317850;33;20290;-89
2022/10/11 06:08:53;;;;;;;41.53;27.62;;;;;;;;;;4318051;33;20283;-88
2022/10/11 06:11:22;;;;;;;37.30;27.17;;;;;;;;;;4318219;33;20243;-88
2022/10/11 06:13:50;;;;;;;42.90;30.00;;;;;;;;;;4317970;33;20250;-89
2022/10/11 06:16:17;;;;;;;41.50;27.93;;;;;;;;;;4317716;33;20235;-89
2022/10/11 06:18:44;;;;;;;40.10;28.77;;;;;;;;;;4317873;33;20219;-89
2022/10/11 06:21:11;;;;;;;40.73;25.43;;;;;;;;;;4317676;33;20376;-88
2022/10/11 06:23:41;;;;;;;29.60;24.97;;;;;;;;;;4317855;33;20219;-88
2022/10/11 06:26:08;;;;;;;36.20;22.83;;;;;;;;;;4317770;33;20681;-89
2022/10/11 06:28:36;;;;;;;29.27;22.50;;;;;;;;;;4318044;33;20629;-88
2022/10/11 06:31:05;;;;;;;37.05;23.02;;;;;;;;;;4317887;33;20235;-89
2022/10/11 06:33:32;;;;;;;32.00;22.42;;;;;;;;;;4317887;33;20227;-89
2022/10/11 06:35:59;;;;;;;33.25;21.30;;;;;;;;;;4317744;33;20677;-88
2022/10/11 06:38:26;;;;;;;35.33;22.23;;;;;;;;;;4318033;33;20279;-88
2022/10/11 06:40:53;;;;;;;31.50;19.20;;;;;;;;;;4317708;33;20246;-90
2022/10/11 06:43:21;;;;;;;28.50;20.47;;;;;;;;;;4318327;33;20228;-89
2022/10/11 06:45:48;;;;;;;44.70;21.83;;;;;;;;;;4317840;33;20238;-89
2022/10/11 06:48:16;;;;;;;28.73;19.13;;;;;;;;;;4317926;33;20227;-89
2022/10/11 06:50:43;;;;;;;28.15;20.10;;;;;;;;;;4304666;33;20302;-90
2022/10/11 06:53:10;;;;;;;34.43;20.13;;;;;;;;;;4317690;33;20215;-90
2022/10/11 06:55:37;;;;;;;29.30;19.17;;;;;;;;;;4317342;33;20611;-89
2022/10/11 06:58:03;;;;;;;27.23;20.08;;;;;;;;;;4317722;33;20318;-89
2022/10/11 07:00:30;;;;;;;31.30;20.27;;;;;;;;;;4317681;33;20215;-89
2022/10/11 07:02:57;;;;;;;30.07;20.33;;;;;;;;;;4317619;33;20360;-89
2022/10/11 07:05:26;;;;;;;26.83;20.47;;;;;;;;;;4317072;33;20224;-88
2022/10/11 07:07:53;;;;;;;34.27;21.07;;;;;;;;;;4317232;33;20231;-89
2022/10/11 07:10:20;;;;;;;34.00;22.33;;;;;;;;;;4317409;33;20231;-88
2022/10/11 07:12:46;;;;;;;38.30;22.03;;;;;;;;;;4317630;33;20258;-88
2022/10/11 07:15:13;;;;;;;29.10;19.43;;;;;;;;;;4317566;33;20219;-88
2022/10/11 07:17:41;;;;;;;39.87;19.13;;;;;;;;;;4317613;33;20239;-88
2022/10/11 07:20:08;;;;;;;29.00;19.03;;;;;;;;;;4317566;33;20263;-87
2022/10/11 07:22:37;;;;;;;27.83;19.80;;;;;;;;;;4317642;33;20235;-89
2022/10/11 07:25:04;;;;;;;28.07;16.97;;;;;;;;;;4318226;33;20274;-89
2022/10/11 07:27:31;;;;;;;28.07;19.03;;;;;;;;;;4317323;33;20239;-89
2022/10/11 07:30:00;;;;;;;31.20;18.23;;;;;;;;;;4317611;33;20227;-88
2022/10/11 07:52:41;;;;;;;27.37;19.10;;;;;;;;;;4319981;33;20246;-89
2022/10/11 07:55:09;;;;;;;26.52;19.30;;;;;;;;;;4320413;33;20228;-88
2022/10/11 07:57:35;;;;;;;34.40;20.92;;;;;;;;;;4320572;33;20302;-89
2022/10/11 08:00:02;;;;;;;24.80;18.17;;;;;;;;;;4320162;33;20282;-89
2022/10/11 08:02:29;;;;;;;34.63;19.57;;;;;;;;;;4319840;33;20279;-89
2022/10/11 08:04:56;;;;;;;23.37;18.67;;;;;;;;;;4320107;33;20732;-88
2022/10/11 08:07:23;;;;;;;30.37;20.40;;;;;;;;;;4320476;33;20246;-89
2022/10/11 08:09:51;;;;;;;29.67;18.77;;;;;;;;;;4320887;33;20543;-89
2022/10/11 08:12:18;;;;;;;29.10;20.50;;;;;;;;;;4319888;33;20262;-89
2022/10/11 08:14:45;;;;;;;30.03;19.63;;;;;;;;;;4320552;33;20491;-89
2022/10/11 08:17:13;;;;;;;33.27;19.07;;;;;;;;;;4320861;33;20327;-88
2022/10/11 08:19:39;;;;;;;37.10;19.52;;;;;;;;;;4320122;33;20245;-88
2022/10/11 08:22:07;;;;;;;29.27;18.85;;;;;;;;;;4319715;33;20716;-87
2022/10/11 08:24:34;;;;;;;23.80;16.98;;;;;;;;;;4320164;33;20707;-87
2022/10/11 08:27:02;;;;;;;28.58;17.75;;;;;;;;;;4319311;33;20613;-89
2022/10/11 08:29:29;;;;;;;24.77;17.08;;;;;;;;;;4319906;33;20220;-89
2022/10/11 08:31:56;;;;;;;34.13;17.20;;;;;;;;;;4319682;33;20216;-89
2022/10/11 08:34:22;;;;;;;29.20;17.87;;;;;;;;;;4319125;33;20345;-89
2022/10/11 08:36:49;;;;;;;29.12;17.50;;;;;;;;;;4319390;33;20219;-89
2022/10/11 08:39:16;;;;;;;28.42;16.77;;;;;;;;;;4319538;33;20286;-88
2022/10/11 08:41:47;;;;;;;28.27;19.02;;;;;;;;;;4319361;33;20223;-89
2022/10/11 08:44:25;;;;;;;30.50;19.83;;;;;;;;;;4320572;33;20219;-89
2022/10/11 08:46:59;;;;;;;33.13;19.42;;;;;;;;;;4319191;33;20302;-89
2022/10/11 08:49:29;;;;;;;34.67;18.67;;;;;;;;;;4319995;33;20218;-88
2022/10/11 08:52:02;;;;;;;30.85;20.55;;;;;;;;;;4319421;33;20215;-88
2022/10/11 08:54:38;;;;;;;39.42;20.55;;;;;;;;;;4319456;33;20270;-89
2022/10/11 08:57:06;;;;;;;33.88;20.48;;;;;;;;;;4319055;33;20239;-88
2022/10/11 08:59:41;;;;;;;28.55;19.90;;;;;;;;;;4319092;33;20223;-89
2022/10/11 09:02:19;;;;;;;36.60;19.87;;;;;;;;;;4319176;33;20247;-89
2022/10/11 09:04:50;;;;;;;34.15;20.65;;;;;;;;;;4320874;33;20615;-88
2022/10/11 09:07:25;;;;;;;32.45;20.62;;;;;;;;;;4319065;33;20243;-89
2022/10/11 09:10:05;;;;;;;29.80;19.83;;;;;;;;;;4319376;33;20293;-89
2022/10/11 09:12:40;;;;;;;34.53;21.05;;;;;;;;;;4319871;33;20243;-89
2022/10/11 09:15:19;;;;;;;35.10;18.80;;;;;;;;;;4320832;33;20215;-90
2022/10/11 09:18:02;;;;;;;33.50;19.70;;;;;;;;;;4321254;33;20249;-90
2022/10/11 09:20:43;;;;;;;35.53;19.98;;;;;;;;;;4319277;33;20230;-89
2022/10/11 09:23:18;;;;;;;30.02;19.83;;;;;;;;;;4319883;33;20286;-90
2022/10/11 09:25:51;;;;;;;34.90;20.08;;;;;;;;;;4318830;33;20219;-89
2022/10/11 09:28:27;;;;;;;37.40;20.40;;;;;;;;;;4318627;33;20253;-89
2022/10/11 09:30:57;;;;;;;29.52;18.27;;;;;;;;;;4319195;33;20234;-89
2022/10/11 09:33:33;;;;;;;22.37;17.58;;;;;;;;;;4318770;33;20266;-89
2022/10/11 09:36:01;;;;;;;38.53;18.40;;;;;;;;;;4319148;33;20641;-89
2022/10/11 09:38:38;;;;;;;30.70;18.92;;;;;;;;;;4318719;33;20240;-88
2022/10/11 09:41:13;;;;;;;30.05;18.12;;;;;;;;;;4319246;33;20241;-89
2022/10/11 09:43:40;;;;;;;35.53;18.55;;;;;;;;;;4318985;33;20248;-88
2022/10/11 09:46:19;;;;;;;27.08;17.23;;;;;;;;;;4318607;33;20305;-88
2022/10/11 09:48:47;;;;;;;25.52;17.75;;;;;;;;;;4318338;33;20688;-88
2022/10/11 09:51:18;;;;;;;31.00;17.70;;;;;;;;;;4318679;33;20283;-88
2022/10/11 09:53:57;;;;;;;28.05;16.58;;;;;;;;;;4319053;33;20231;-89
2022/10/11 09:56:25;;;;;;;40.38;18.95;;;;;;;;;;4318528;33;20298;-89
2022/10/11 09:59:25;;;;;;;33.08;18.85;;;;;;;;;;4318772;33;20223;-88
2022/10/11 10:02:21;;;;;;;33.17;16.98;;;;;;;;;;4318167;33;20265;-89
2022/10/11 10:05:01;;;;;;;24.23;16.12;;;;;;;;;;4318524;33;20208;-88
2022/10/11 10:07:30;;;;;;;26.15;17.65;;;;;;;;;;4317695;33;20227;-88
2022/10/11 10:09:58;;;;;;;27.67;18.27;;;;;;;;;;4318265;33;20269;-89
2022/10/11 10:12:27;;;;;;;22.40;17.55;;;;;;;;;;4318219;33;20251;-88
2022/10/11 10:15:05;;;;;;;27.58;15.38;;;;;;;;;;4317620;33;20215;-89
2022/10/11 10:17:34;;;;;;;18.17;15.93;;;;;;;;;;4318132;33;20231;-88
2022/10/11 10:20:04;;;;;;;29.58;18.70;;;;;;;;;;4318532;33;20232;-87
2022/10/11 10:22:34;;;;;;;23.08;16.73;;;;;;;;;;4318195;33;20302;-88
2022/10/11 10:25:06;;;;;;;22.27;16.83;;;;;;;;;;4318033;33;20230;-88
2022/10/11 10:27:57;;;;;;;28.70;17.30;;;;;;;;;;4495078;31;20335;-82
2022/10/11 10:30:25;;;;;;;26.50;18.12;;;;;;;;;;4480686;32;20664;-79
2022/10/11 10:33:00;;;;;;;26.55;18.17;;;;;;;;;;4481974;32;20589;-86
2022/10/11 10:35:31;;;;;;;23.48;17.92;;;;;;;;;;4481030;32;20559;-81
2022/10/11 10:38:11;;;;;;;24.58;18.58;;;;;;;;;;4481148;32;20581;-81
2022/10/11 10:40:42;;;;;;;36.80;19.23;;;;;;;;;;4481318;32;20607;-86
2022/10/11 10:43:19;;;;;;;29.23;18.25;;;;;;;;;;4480946;32;20603;-77
2022/10/11 10:46:16;;;;;;;26.33;18.10;;;;;;;;;;4480940;32;20721;-86
2022/10/11 10:48:52;;;;;;;26.25;15.82;;;;;;;;;;4459366;32;20564;-86
2022/10/11 10:51:30;;;;;;;25.00;17.35;;;;;;;;;;4480967;32;20563;-81
2022/10/11 10:54:05;;;;;;;25.85;17.37;;;;;;;;;;4485290;32;20599;-84
2022/10/11 10:56:37;;;;;;;26.25;17.83;;;;;;;;;;4484999;32;20656;-82
2022/10/11 10:59:19;;;;;;;27.13;18.42;;;;;;;;;;4484816;32;20307;-84
2022/10/11 11:01:56;;;;;;;31.92;19.60;;;;;;;;;;4490557;32;20231;-83
2022/10/11 11:04:30;;;;;;;31.35;19.92;;;;;;;;;;4495380;32;20212;-82
2022/10/11 11:07:03;;;;;;;23.90;18.67;;;;;;;;;;4482042;26;20234;-85
2022/10/11 11:09:41;;;;;;;27.33;18.52;;;;;;;;;;4465642;32;20364;-88
2022/10/11 11:12:20;;;;;;;25.77;19.45;;;;;;;;;;4453535;32;20208;-89
2022/10/11 11:14:56;;;;;;;28.70;18.17;;;;;;;;;;4451803;32;20254;-89
2022/10/11 11:17:31;;;;;;;28.05;17.02;;;;;;;;;;4452242;32;20273;-89
2022/10/11 11:20:13;;;;;;;33.47;18.75;;;;;;;;;;4451867;32;20292;-90
2022/10/11 11:22:49;;;;;;;25.85;19.20;;;;;;;;;;4452279;32;20212;-87
2022/10/11 11:25:27;;;;;;;33.72;18.60;;;;;;;;;;4457753;32;20244;-85
2022/10/11 11:28:08;;;;;;;22.70;17.73;;;;;;;;;;4453679;32;20196;-88
2022/10/11 11:30:48;;;;;;;31.40;20.33;;;;;;;;;;4451441;32;20621;-88
2022/10/11 11:33:30;;;;;;;35.40;20.58;;;;;;;;;;4454262;32;20276;-87
2022/10/11 11:36:05;;;;;;;37.05;20.62;;;;;;;;;;4458659;32;20262;-88
2022/10/11 11:38:41;;;;;;;35.72;18.73;;;;;;;;;;4452609;32;20247;-88
2022/10/11 11:41:14;;;;;;;32.97;19.62;;;;;;;;;;4443436;32;20609;-86
2022/10/11 11:44:02;;;;;;;33.15;20.37;;;;;;;;;;4442580;32;20212;-87
2022/10/11 11:46:39;;;;;;;25.27;19.90;;;;;;;;;;4441551;32;20682;-88
2022/10/11 11:49:13;;;;;;;29.95;19.40;;;;;;;;;;4441529;32;20212;-88
2022/10/11 11:51:43;;;;;;;25.62;19.87;;;;;;;;;;4440671;32;20268;-90
2022/10/11 11:54:21;;;;;;;39.03;21.73;;;;;;;;;;4440370;32;20717;-88
2022/10/11 11:57:01;;;;;;;36.58;21.52;;;;;;;;;;4440303;32;20226;-90
2022/10/11 11:59:35;;;;;;;42.55;21.62;;;;;;;;;;4441156;32;20208;-91
2022/10/11 12:02:24;;;;;;;29.95;22.48;;;;;;;;;;4443890;32;20224;-89
2022/10/11 12:04:52;;;;;;;32.47;21.10;;;;;;;;;;4446382;32;20245;-89
2022/10/11 12:07:22;;;;;;;52.78;23.70;;;;;;;;;;4445520;32;20242;-90
2022/10/11 12:09:51;;;;;;;27.58;21.70;;;;;;;;;;4440146;32;20615;-89
2022/10/11 12:12:30;;;;;;;34.08;22.70;;;;;;;;;;4439794;32;20618;-90
2022/10/11 12:15:18;;;;;;;32.83;22.40;;;;;;;;;;4439731;32;20263;-89
2022/10/11 12:18:05;;;;;;;31.55;22.98;;;;;;;;;;4440039;32;20316;-88
2022/10/11 12:20:35;;;;;;;33.38;23.40;;;;;;;;;;4440983;32;20224;-89
2022/10/11 12:23:05;;;;;;;36.97;22.45;;;;;;;;;;4439590;32;20224;-89
2022/10/11 12:25:42;;;;;;;29.42;21.37;;;;;;;;;;4438843;32;20232;-89
2022/10/11 12:29:00;;;;;;;30.92;20.88;;;;;;;;;;4439472;32;20284;-89
2022/10/11 12:31:29;;;;;;;35.13;23.92;;;;;;;;;;4439651;32;20292;-90
2022/10/11 12:34:30;;;;;;;28.00;22.05;;;;;;;;;;4439337;32;20291;-90
2022/10/11 12:36:57;;;;;;;31.73;23.75;;;;;;;;;;4439724;32;20220;-89
2022/10/11 12:39:49;;;;;;;32.25;23.95;;;;;;;;;;4439264;32;20208;-88
2022/10/11 12:42:30;;;;;;;36.05;24.90;;;;;;;;;;4439160;32;20264;-89
2022/10/11 12:45:32;;;;;;;36.38;23.52;;;;;;;;;;4439541;32;20225;-90
2022/10/11 12:48:10;;;;;;;36.67;22.70;;;;;;;;;;4438643;32;20208;-90
2022/10/11 12:50:50;;;;;;;39.92;22.83;;;;;;;;;;4438148;32;20224;-91
2022/10/11 12:53:39;;;;;;;41.97;25.02;;;;;;;;;;4439569;32;20212;-89
2022/10/11 12:56:12;;;;;;;36.42;24.90;;;;;;;;;;4439093;32;20238;-89
2022/10/11 12:58:41;;;;;;;33.72;25.85;;;;;;;;;;4440227;32;20280;-89
2022/10/11 13:01:22;;;;;;;33.70;25.73;;;;;;;;;;4438804;32;20225;-89
2022/10/11 13:03:57;;;;;;;39.75;25.80;;;;;;;;;;4439552;32;20217;-90
2022/10/11 13:06:27;;;;;;;49.03;27.67;;;;;;;;;;4438767;32;20254;-90
2022/10/11 13:08:56;;;;;;;41.10;28.95;;;;;;;;;;4439335;32;20265;-89
2022/10/11 13:11:27;;;;;;;41.47;29.02;;;;;;;;;;4439081;32;20232;-91
2022/10/11 13:13:56;;;;;;;39.05;27.85;;;;;;;;;;4439221;32;20231;-89
2022/10/11 13:16:25;;;;;;;35.53;25.88;;;;;;;;;;4438425;32;20228;-90
2022/10/11 13:18:57;;;;;;;37.80;28.10;;;;;;;;;;4439804;32;20227;-89
2022/10/11 13:21:32;;;;;;;49.78;27.83;;;;;;;;;;4438595;32;20213;-89
2022/10/11 13:24:01;;;;;;;37.70;27.33;;;;;;;;;;4439516;32;20255;-88
2022/10/11 13:26:32;;;;;;;45.33;26.83;;;;;;;;;;4439203;32;20228;-89
2022/10/11 13:29:00;;;;;;;33.50;26.12;;;;;;;;;;4439575;32;20217;-89
2022/10/11 13:31:27;;;;;;;36.78;27.55;;;;;;;;;;4438804;32;20224;-90
2022/10/11 13:33:57;;;;;;;47.13;29.42;;;;;;;;;;4438992;32;20240;-89
2022/10/11 13:36:26;;;;;;;42.58;28.55;;;;;;;;;;4439166;32;20233;-89
2022/10/11 13:38:58;;;;;;;48.75;27.08;;;;;;;;;;4438501;32;20216;-90
2022/10/11 13:41:27;;;;;;;45.50;29.63;;;;;;;;;;4438377;32;20229;-89
2022/10/11 13:43:56;;;;;;;40.60;26.98;;;;;;;;;;4438697;32;20227;-89
2022/10/11 13:46:25;;;;;;;52.70;31.37;;;;;;;;;;4438303;32;20290;-89
2022/10/11 13:49:02;;;;;;;47.78;30.62;;;;;;;;;;4438075;32;20620;-89
2022/10/11 13:51:32;;;;;;;39.88;31.02;;;;;;;;;;4437830;32;20633;-90
2022/10/11 13:54:03;;;;;;;47.45;32.75;;;;;;;;;;4439189;32;20228;-88
2022/10/11 13:56:32;;;;;;;57.65;34.47;;;;;;;;;;4438118;32;20624;-87
2022/10/11 13:59:03;;;;;;;48.75;35.15;;;;;;;;;;4437974;32;20235;-89
2022/10/11 14:01:38;;;;;;;49.38;34.33;;;;;;;;;;4437214;32;20283;-89
2022/10/11 14:04:07;;;;;;;54.10;32.13;;;;;;;;;;4437944;32;20269;-89
2022/10/11 14:06:44;;;;;;;47.55;29.83;;;;;;;;;;4437174;32;20241;-89
2022/10/11 14:09:19;;;;;;;40.90;27.80;;;;;;;;;;4438188;32;20694;-89
2022/10/11 14:11:46;;;;;;;45.38;27.58;;;;;;;;;;4438228;32;20216;-88
2022/10/11 14:14:38;;;;;;;44.35;27.65;;;;;;;;;;4438071;32;20243;-89
2022/10/11 14:17:11;;;;;;;48.35;27.30;;;;;;;;;;4438131;32;20235;-88
2022/10/11 14:19:38;;;;;;;35.75;25.83;;;;;;;;;;4437705;32;20224;-89
2022/10/11 14:22:06;;;;;;;36.47;26.08;;;;;;;;;;4437903;32;20261;-89
2022/10/11 14:24:34;;;;;;;71.85;45.58;;;;;;;;;;4437787;32;20333;-88
2022/10/11 14:27:06;;;;;;;49.72;36.00;;;;;;;;;;4437813;32;20217;-89
2022/10/11 14:29:35;;;;;;;58.45;34.25;;;;;;;;;;4437847;32;20716;-89
2022/10/11 14:32:04;;;;;;;57.55;35.05;;;;;;;;;;4437531;32;20219;-89
2022/10/11 14:34:32;;;;;;;53.85;32.25;;;;;;;;;;4437199;32;20228;-89
2022/10/11 14:36:59;;;;;;;42.90;30.77;;;;;;;;;;4437545;32;20210;-88
2022/10/11 14:39:27;;;;;;;54.92;33.53;;;;;;;;;;4437497;32;20270;-89
2022/10/11 14:41:56;;;;;;;58.45;36.78;;;;;;;;;;4437528;32;20262;-89
2022/10/11 14:44:23;;;;;;;50.75;39.33;;;;;;;;;;4437590;32;20208;-88
2022/10/11 14:46:52;;;;;;;64.30;39.55;;;;;;;;;;4437570;32;20272;-88
2022/10/11 14:49:20;;;;;;;53.47;40.65;;;;;;;;;;4437476;32;20227;-87
2022/10/11 14:51:49;;;;;;;54.13;37.78;;;;;;;;;;4437571;32;20610;-88
2022/10/11 14:54:22;;;;;;;53.03;34.85;;;;;;;;;;4437690;32;20274;-87
2022/10/11 14:56:49;;;;;;;57.13;34.30;;;;;;;;;;4438305;32;20227;-88
2022/10/11 14:59:19;;;;;;;43.65;30.90;;;;;;;;;;4437344;32;20291;-88